Time;durP1;ratioP1;P1;durP2;ratioP2;P2;SDS_P1;SDS_P2;PMS_P1;PMS_P2;Temp;Humidity;BMP_temperature;BMP_pressure;BME280_temperature;BME280_humidity;BME280_pressure;Samples;Min_cycle;Max_cycle;Signal;HPM_P1;HPM_P2
2022/07/07 00:01:33;;;;;;;10.50;6.47;;;;;;;19.96;59.53;101979.88;5071433;28;20033;-73
2022/07/07 00:04:00;;;;;;;8.77;6.97;;;;;;;19.99;59.55;101976.47;5080882;28;20076;-73
2022/07/07 00:06:27;;;;;;;8.68;6.05;;;;;;;19.96;59.49;101965.78;5074288;28;20136;-72
2022/07/07 00:08:54;;;;;;;9.55;6.75;;;;;;;19.94;59.57;101962.44;5070406;28;20609;-72
2022/07/07 00:11:21;;;;;;;9.07;6.57;;;;;;;19.94;59.42;101968.06;5069717;28;20036;-72
2022/07/07 00:13:47;;;;;;;9.07;6.32;;;;;;;19.98;59.31;101969.16;5069801;28;20032;-72
2022/07/07 00:16:12;;;;;;;7.32;5.97;;;;;;;19.95;59.51;101969.75;5068751;28;20024;-72
2022/07/07 00:18:38;;;;;;;10.13;5.75;;;;;;;19.92;59.44;101970.31;5063373;28;20036;-73
2022/07/07 00:21:03;;;;;;;7.93;5.95;;;;;;;19.90;59.56;101964.97;5071412;28;20067;-72
2022/07/07 00:23:29;;;;;;;7.00;6.05;;;;;;;19.92;59.58;101971.16;5076783;28;20115;-73
2022/07/07 00:25:54;;;;;;;9.05;5.57;;;;;;;19.94;59.50;101959.63;5068292;28;20040;-72
2022/07/07 00:28:20;;;;;;;7.95;5.72;;;;;;;19.93;59.46;101957.94;5067909;28;20032;-72
2022/07/07 00:30:45;;;;;;;7.90;5.40;;;;;;;19.88;59.78;101955.97;5066558;28;20051;-72
2022/07/07 00:33:10;;;;;;;8.45;5.10;;;;;;;19.95;59.33;101944.38;5066769;28;20054;-72
2022/07/07 00:35:36;;;;;;;6.53;5.78;;;;;;;19.90;59.52;101935.97;5069958;28;20031;-72
2022/07/07 00:38:01;;;;;;;6.18;5.50;;;;;;;19.91;59.59;101923.56;5073089;28;20032;-72
2022/07/07 00:40:26;;;;;;;11.27;5.55;;;;;;;19.95;59.22;101927.47;5069379;28;20030;-72
2022/07/07 00:42:52;;;;;;;7.65;5.32;;;;;;;19.89;59.66;101932.31;5071158;28;20123;-72
2022/07/07 00:45:17;;;;;;;6.97;5.25;;;;;;;19.89;59.64;101921.03;5070113;28;20020;-72
2022/07/07 00:47:43;;;;;;;6.00;4.85;;;;;;;19.85;59.55;101920.78;5071295;28;20112;-72
2022/07/07 00:50:10;;;;;;;10.15;5.57;;;;;;;19.74;60.07;101919.13;5069221;28;20107;-72
2022/07/07 00:52:35;;;;;;;5.47;4.47;;;;;;;19.86;59.60;101921.63;5071615;28;20040;-72
2022/07/07 00:55:02;;;;;;;7.93;5.20;;;;;;;19.80;60.27;101917.13;5069944;28;20032;-72
2022/07/07 00:57:27;;;;;;;7.13;4.88;;;;;;;19.86;59.65;101913.16;5071914;28;20048;-72
2022/07/07 00:59:59;;;;;;;6.55;4.97;;;;;;;19.93;59.36;101910.88;5070359;28;20044;-72
2022/07/07 01:02:28;;;;;;;6.30;5.00;;;;;;;19.88;60.00;101901.59;5068738;28;20078;-71
2022/07/07 01:04:53;;;;;;;6.97;5.05;;;;;;;19.89;59.94;101915.41;5066789;28;20380;-72
2022/07/07 01:07:19;;;;;;;5.95;4.80;;;;;;;19.91;59.63;101906.66;5069957;28;20042;-72
2022/07/07 01:09:45;;;;;;;8.95;4.57;;;;;;;19.94;59.70;101917.34;5059010;28;20082;-72
2022/07/07 01:12:10;;;;;;;8.18;4.68;;;;;;;19.91;59.99;101907.47;5065285;28;20036;-72
2022/07/07 01:14:38;;;;;;;7.28;4.43;;;;;;;19.89;59.99;101909.78;5073041;28;20363;-72
2022/07/07 01:17:04;;;;;;;5.43;4.60;;;;;;;19.93;59.90;101916.50;5069805;28;20032;-72
2022/07/07 01:19:29;;;;;;;7.55;4.88;;;;;;;19.93;60.05;101910.03;5070010;28;20078;-72
2022/07/07 01:22:11;;;;;;;5.88;4.55;;;;;;;19.93;59.98;101910.88;5069748;28;20541;-72
2022/07/07 01:24:37;;;;;;;7.82;4.90;;;;;;;19.91;59.99;101901.00;5070199;28;20120;-72
2022/07/07 01:27:09;;;;;;;6.53;4.45;;;;;;;19.90;60.15;101905.81;5072241;28;20020;-72
2022/07/07 01:29:41;;;;;;;6.40;4.55;;;;;;;19.88;60.13;101915.69;5076418;28;20410;-72
2022/07/07 01:32:08;;;;;;;7.05;4.53;;;;;;;19.87;60.23;101906.38;5077364;28;20040;-72
2022/07/07 01:34:34;;;;;;;4.50;4.03;;;;;;;19.91;59.98;101895.38;5068009;28;20503;-72
2022/07/07 01:37:00;;;;;;;5.93;4.30;;;;;;;19.89;60.34;101900.47;5069023;28;20060;-72
2022/07/07 01:39:25;;;;;;;9.02;4.40;;;;;;;19.92;60.21;101891.41;5068461;28;20056;-72
2022/07/07 01:41:51;;;;;;;6.53;4.53;;;;;;;19.85;60.48;101895.41;5064264;28;20024;-72
2022/07/07 01:44:16;;;;;;;7.80;4.85;;;;;;;19.81;60.46;101888.69;5074525;28;20417;-72
2022/07/07 01:46:41;;;;;;;5.63;5.03;;;;;;;19.80;60.47;101889.78;5072958;28;20460;-72
2022/07/07 01:49:06;;;;;;;9.65;5.63;;;;;;;19.81;60.86;101883.03;5069136;28;20021;-72
2022/07/07 01:51:32;;;;;;;7.07;4.28;;;;;;;19.86;60.79;101879.34;5078804;28;20067;-72
2022/07/07 01:53:57;;;;;;;7.88;4.85;;;;;;;19.85;60.73;101878.50;5075135;28;20051;-72
2022/07/07 01:56:22;;;;;;;10.98;5.28;;;;;;;19.81;60.74;101877.41;5074781;28;20021;-72
2022/07/07 01:58:48;;;;;;;7.28;4.68;;;;;;;19.86;60.92;101879.34;5073089;28;20074;-73
2022/07/07 02:01:13;;;;;;;7.97;4.55;;;;;;;19.81;61.12;101882.22;5074642;28;20029;-72
2022/07/07 02:03:38;;;;;;;6.97;4.40;;;;;;;19.85;61.12;101880.50;5068804;28;20120;-72
2022/07/07 02:06:03;;;;;;;7.93;4.95;;;;;;;19.80;61.31;101878.53;5076443;28;20043;-72
2022/07/07 02:08:29;;;;;;;9.90;4.60;;;;;;;19.83;61.15;101882.75;5078366;28;20383;-72
2022/07/07 02:11:12;;;;;;;6.38;5.10;;;;;;;19.81;61.32;101877.41;5084512;28;20047;-72
2022/07/07 02:13:50;;;;;;;7.18;4.90;;;;;;;19.80;61.14;101872.88;5074193;28;20111;-72
2022/07/07 02:16:18;;;;;;;10.63;4.57;;;;;;;19.82;61.46;101879.09;5071030;28;20464;-72
2022/07/07 02:18:44;;;;;;;6.53;4.28;;;;;;;19.80;61.72;101875.69;5074049;28;20074;-72
2022/07/07 02:21:11;;;;;;;6.68;4.22;;;;;;;19.83;61.63;101869.50;5073658;28;20033;-72
2022/07/07 02:23:38;;;;;;;6.50;4.18;;;;;;;19.82;61.74;101864.16;5071854;28;20059;-72
2022/07/07 02:26:04;;;;;;;5.07;3.85;;;;;;;19.83;61.92;101863.03;5075977;28;20039;-72
2022/07/07 02:28:30;;;;;;;4.85;3.85;;;;;;;19.76;62.18;101877.41;5074610;28;20482;-72
2022/07/07 02:30:57;;;;;;;7.22;3.85;;;;;;;19.82;62.05;101875.44;5088184;28;20464;-72
2022/07/07 02:33:22;;;;;;;8.70;3.63;;;;;;;19.80;61.95;101867.25;5072548;28;20369;-72
2022/07/07 02:35:49;;;;;;;6.20;3.28;;;;;;;19.79;61.96;101865.56;5074387;28;20028;-72
2022/07/07 02:38:15;;;;;;;4.88;3.65;;;;;;;19.78;62.22;101860.25;5067289;28;20021;-72
2022/07/07 02:40:40;;;;;;;10.48;3.53;;;;;;;19.80;62.02;101857.97;5072546;28;20035;-72
2022/07/07 02:43:05;;;;;;;4.70;3.20;;;;;;;19.82;61.95;101862.19;5074491;28;20021;-72
2022/07/07 02:45:30;;;;;;;5.05;3.15;;;;;;;19.82;62.31;101867.81;5078191;28;20024;-72
2022/07/07 02:47:56;;;;;;;5.05;3.17;;;;;;;19.81;62.18;101863.31;5071454;28;20040;-72
2022/07/07 02:50:22;;;;;;;6.75;3.30;;;;;;;19.78;62.26;101860.25;5071325;28;20404;-72
2022/07/07 02:52:48;;;;;;;7.55;3.05;;;;;;;19.83;62.10;101860.19;5071268;28;20028;-72
2022/07/07 02:55:13;;;;;;;4.22;2.63;;;;;;;19.81;62.00;101857.69;5073382;28;20051;-72
2022/07/07 02:57:38;;;;;;;4.70;2.90;;;;;;;19.84;61.52;101859.91;5065343;28;20029;-73
2022/07/07 03:00:06;;;;;;;6.78;2.80;;;;;;;19.81;61.74;101866.16;5074156;28;20390;-72
2022/07/07 03:02:31;;;;;;;5.95;2.65;;;;;;;19.81;61.75;101863.31;5070071;28;20033;-71
2022/07/07 03:04:57;;;;;;;5.85;3.20;;;;;;;19.80;61.89;101864.44;5073830;28;20146;-72
2022/07/07 03:07:22;;;;;;;7.32;2.95;;;;;;;19.77;62.25;101855.75;5063826;28;20052;-72
2022/07/07 03:09:47;;;;;;;5.63;3.03;;;;;;;19.73;62.61;101866.75;5065437;28;20041;-72
2022/07/07 03:12:12;;;;;;;7.15;3.10;;;;;;;19.74;62.89;101870.41;5070182;28;20032;-73
2022/07/07 03:14:38;;;;;;;7.50;3.15;;;;;;;19.70;63.45;101875.78;5077049;28;20029;-72
2022/07/07 03:17:03;;;;;;;5.18;2.78;;;;;;;19.77;63.56;101883.91;5066474;28;20025;-72
2022/07/07 03:19:29;;;;;;;5.15;2.45;;;;;;;19.64;64.34;101873.25;5071996;28;20109;-72
2022/07/07 03:21:54;;;;;;;3.70;2.40;;;;;;;19.52;65.06;101885.69;5071981;28;20439;-72
2022/07/07 03:24:19;;;;;;;3.83;2.20;;;;;;;19.60;64.58;101878.59;5063221;28;20029;-72
2022/07/07 03:26:44;;;;;;;2.88;2.05;;;;;;;19.54;64.29;101880.63;5073736;28;20460;-72
2022/07/07 03:29:10;;;;;;;3.05;2.15;;;;;;;19.52;64.34;101882.88;5086604;28;20028;-72
2022/07/07 03:31:35;;;;;;;2.47;1.88;;;;;;;19.53;64.10;101878.06;5071802;28;20096;-72
2022/07/07 03:34:00;;;;;;;4.07;2.22;;;;;;;19.38;64.57;101895.88;5070833;28;20078;-72
2022/07/07 03:36:25;;;;;;;3.65;1.80;;;;;;;19.26;65.58;101890.59;5072266;28;20551;-72
2022/07/07 03:38:51;;;;;;;4.63;2.00;;;;;;;19.25;65.62;101890.84;5071291;28;20012;-72
2022/07/07 03:41:16;;;;;;;3.08;1.90;;;;;;;19.18;65.56;101887.50;5071431;28;20059;-72
2022/07/07 03:43:41;;;;;;;4.85;2.00;;;;;;;19.03;66.82;101880.78;5084146;28;20039;-72
2022/07/07 03:46:07;;;;;;;2.85;1.90;;;;;;;19.13;66.63;101879.91;5060074;28;20061;-71
2022/07/07 03:48:33;;;;;;;3.38;1.77;;;;;;;19.04;67.33;101876.84;5061414;28;20147;-72
2022/07/07 03:50:58;;;;;;;4.28;1.65;;;;;;;19.03;67.55;101882.78;5070672;28;20132;-72
2022/07/07 03:53:23;;;;;;;3.00;2.00;;;;;;;18.98;68.13;101885.56;5073069;28;20067;-72
2022/07/07 03:55:49;;;;;;;4.13;1.98;;;;;;;19.03;67.47;101877.97;5072274;28;20029;-72
2022/07/07 03:58:15;;;;;;;2.47;1.98;;;;;;;19.02;67.43;101881.06;5072768;28;20036;-72
2022/07/07 04:00:40;;;;;;;2.55;2.10;;;;;;;19.05;67.54;101880.50;5071041;28;20044;-72
2022/07/07 04:03:05;;;;;;;5.40;2.30;;;;;;;19.00;67.89;101877.72;5071936;28;20435;-72
2022/07/07 04:05:31;;;;;;;2.67;2.25;;;;;;;18.98;68.16;101875.19;5066355;28;20550;-72
2022/07/07 04:07:56;;;;;;;4.88;2.47;;;;;;;19.00;68.10;101872.06;5065144;28;20456;-73
2022/07/07 04:10:21;;;;;;;2.60;2.40;;;;;;;18.91;68.70;101877.44;5072238;28;20025;-72
2022/07/07 04:12:46;;;;;;;3.67;2.47;;;;;;;18.91;68.56;101873.81;5069758;28;20582;-72
2022/07/07 04:15:12;;;;;;;5.00;2.85;;;;;;;18.84;68.93;101860.84;5071450;28;20426;-72
2022/07/07 04:17:37;;;;;;;4.60;2.47;;;;;;;18.89;68.43;101857.19;5071770;28;20107;-72
2022/07/07 04:20:04;;;;;;;4.85;2.70;;;;;;;18.87;68.95;101854.66;5069347;28;20028;-72
2022/07/07 04:22:29;;;;;;;3.10;2.10;;;;;;;18.82;69.32;101862.25;5070929;28;20029;-72
2022/07/07 04:24:54;;;;;;;4.13;3.17;;;;;;;18.81;69.31;101852.97;5067195;28;20036;-72
2022/07/07 04:27:20;;;;;;;5.78;2.97;;;;;;;18.82;69.54;101857.50;5078531;28;20052;-72
2022/07/07 04:29:45;;;;;;;3.90;2.80;;;;;;;18.86;69.05;101858.63;5068471;28;20094;-72
2022/07/07 04:32:10;;;;;;;3.53;2.75;;;;;;;18.87;69.22;101860.28;5069729;28;20053;-72
2022/07/07 04:34:35;;;;;;;4.65;2.60;;;;;;;18.82;69.31;101854.69;5072384;28;20029;-72
2022/07/07 04:37:01;;;;;;;3.53;2.45;;;;;;;18.85;69.05;101861.69;5065049;28;20725;-72
2022/07/07 04:39:27;;;;;;;3.42;2.80;;;;;;;18.82;69.40;101863.13;5068578;28;20043;-72
2022/07/07 04:41:52;;;;;;;6.00;2.83;;;;;;;18.89;69.66;101874.91;5074130;28;20033;-72
2022/07/07 04:44:17;;;;;;;7.80;2.60;;;;;;;18.83;69.70;101878.88;5071406;28;20028;-72
2022/07/07 04:46:42;;;;;;;5.03;2.50;;;;;;;18.91;69.31;101887.88;5069069;28;20042;-72
2022/07/07 04:49:08;;;;;;;4.32;2.50;;;;;;;18.89;69.07;101891.78;5069503;28;20491;-72
2022/07/07 04:51:33;;;;;;;4.03;2.22;;;;;;;18.93;68.85;101894.88;5070359;28;20040;-72
2022/07/07 04:53:58;;;;;;;5.15;1.98;;;;;;;18.95;68.75;101894.59;5071070;28;20051;-72
2022/07/07 04:56:24;;;;;;;2.50;1.90;;;;;;;18.85;69.06;101907.53;5074189;28;20016;-72
2022/07/07 04:58:49;;;;;;;3.95;1.95;;;;;;;18.86;68.98;101909.25;5073898;28;20487;-72
2022/07/07 05:01:14;;;;;;;3.42;2.10;;;;;;;18.88;68.88;101895.72;5061744;28;20407;-71
2022/07/07 05:03:40;;;;;;;2.55;1.83;;;;;;;18.87;68.98;101910.94;5072341;28;20065;-72
2022/07/07 05:06:05;;;;;;;3.40;1.67;;;;;;;18.84;69.35;101908.69;5068721;28;20745;-71
2022/07/07 05:08:31;;;;;;;3.90;1.70;;;;;;;18.64;69.39;101909.50;5067708;28;20048;-72
2022/07/07 05:10:56;;;;;;;3.30;1.40;;;;;;;18.75;68.99;101910.38;5065170;28;20028;-72
2022/07/07 05:13:22;;;;;;;2.15;1.20;;;;;;;18.71;68.86;101916.84;5070471;28;20028;-72
2022/07/07 05:15:48;;;;;;;3.55;1.45;;;;;;;18.76;69.21;101926.13;5066294;28;20392;-72
2022/07/07 05:18:14;;;;;;;5.32;1.17;;;;;;;18.78;68.30;101925.81;5069733;28;20041;-72
2022/07/07 05:20:39;;;;;;;3.65;1.38;;;;;;;18.78;68.77;101923.84;5068163;28;20487;-72
2022/07/07 05:23:05;;;;;;;4.35;1.20;;;;;;;18.73;68.48;101926.69;5070999;28;20024;-72
2022/07/07 05:25:30;;;;;;;3.13;1.20;;;;;;;18.62;68.63;101939.84;5070328;28;20396;-72
2022/07/07 05:27:55;;;;;;;4.18;1.23;;;;;;;18.57;69.22;101933.41;5067917;28;20021;-72
2022/07/07 05:30:20;;;;;;;5.95;1.33;;;;;;;18.57;69.29;101933.41;5073417;28;20463;-72
2022/07/07 05:32:46;;;;;;;4.43;1.40;;;;;;;18.65;69.36;101938.47;5066976;28;20040;-71
2022/07/07 05:35:11;;;;;;;5.38;1.30;;;;;;;18.51;69.63;101940.13;5068679;28;20056;-71
2022/07/07 05:37:37;;;;;;;3.33;1.20;;;;;;;18.60;69.49;101944.09;5069185;28;20024;-72
2022/07/07 05:40:03;;;;;;;3.92;1.23;;;;;;;18.58;69.69;101952.78;5069675;28;20033;-71
2022/07/07 05:42:28;;;;;;;4.95;1.42;;;;;;;18.60;69.61;101947.75;5069041;28;20051;-72
2022/07/07 05:44:53;;;;;;;4.20;1.35;;;;;;;18.73;68.94;101943.56;5069725;28;20139;-72
2022/07/07 05:47:18;;;;;;;4.00;1.13;;;;;;;18.77;68.58;101952.28;5073323;28;20052;-72
2022/07/07 05:49:43;;;;;;;7.18;1.27;;;;;;;18.79;68.82;101955.66;5067387;28;20106;-71
2022/07/07 05:52:09;;;;;;;6.20;1.42;;;;;;;18.85;68.78;101963.81;5065460;28;20032;-71
2022/07/07 05:54:34;;;;;;;7.65;1.42;;;;;;;18.87;68.15;101967.19;5071118;28;20028;-71
2022/07/07 05:56:59;;;;;;;4.57;1.23;;;;;;;18.87;68.50;101977.59;5062634;28;20469;-71
2022/07/07 05:59:25;;;;;;;5.45;1.60;;;;;;;18.84;68.32;101973.38;5067812;28;20123;-71
2022/07/07 06:01:50;;;;;;;2.72;1.17;;;;;;;18.77;68.44;101975.63;5071872;28;20036;-71
2022/07/07 06:04:15;;;;;;;6.10;1.40;;;;;;;18.73;68.90;101971.69;5076637;28;20052;-71
2022/07/07 06:06:42;;;;;;;4.75;1.15;;;;;;;18.47;68.26;101990.50;5067099;28;20044;-72
2022/07/07 06:09:07;;;;;;;4.50;1.17;;;;;;;18.32;68.91;101984.84;5066111;28;20035;-72
2022/07/07 06:11:32;;;;;;;3.78;1.35;;;;;;;18.31;69.17;101995.22;5069633;28;20387;-72
2022/07/07 06:13:58;;;;;;;5.43;1.20;;;;;;;18.33;68.82;101994.94;5063107;28;20041;-72
2022/07/07 06:16:38;;;;;;;5.00;1.17;;;;;;;18.48;67.54;102002.56;5077430;28;20130;-72
2022/07/07 06:19:08;;;;;;;5.60;1.15;;;;;;;18.47;66.80;102017.72;5068593;28;20033;-72
2022/07/07 06:21:33;;;;;;;7.13;1.55;;;;;;;18.38;67.00;102020.25;5067993;28;20115;-72
2022/07/07 06:23:59;;;;;;;5.53;1.33;;;;;;;18.50;66.86;102032.06;5068566;28;20120;-72
2022/07/07 06:26:25;;;;;;;6.15;1.50;;;;;;;18.56;66.50;102024.50;5068230;28;20050;-72
2022/07/07 06:28:50;;;;;;;6.57;1.58;;;;;;;18.54;67.10;102036.03;5068584;28;20037;-72
2022/07/07 06:31:15;;;;;;;6.97;1.52;;;;;;;18.61;66.39;102027.31;5071320;28;20028;-73
2022/07/07 06:33:41;;;;;;;5.32;1.48;;;;;;;18.49;65.79;102036.03;5069253;28;20036;-70
2022/07/07 06:36:07;;;;;;;7.70;1.90;;;;;;;18.38;64.74;102037.94;5071427;28;20028;-69
2022/07/07 06:38:32;;;;;;;8.18;1.33;;;;;;;18.53;65.16;102031.53;5068528;28;20047;-70
2022/07/07 06:40:58;;;;;;;4.80;1.60;;;;;;;18.68;62.75;102032.69;5071424;28;20039;-69
2022/07/07 06:43:24;;;;;;;5.25;1.63;;;;;;;18.84;62.21;102037.22;5072347;28;20067;-69
2022/07/07 06:45:49;;;;;;;4.97;1.60;;;;;;;19.05;61.30;102040.88;5070919;28;20032;-68
2022/07/07 06:48:14;;;;;;;5.00;1.10;;;;;;;19.13;61.62;102054.41;5073414;28;20407;-69
2022/07/07 06:50:40;;;;;;;7.90;1.40;;;;;;;19.17;61.40;102063.13;5067577;28;20387;-70
2022/07/07 06:53:05;;;;;;;5.95;1.40;;;;;;;19.32;60.90;102065.94;5071696;28;20090;-70
2022/07/07 06:55:30;;;;;;;7.47;1.55;;;;;;;19.27;61.60;102072.41;5070222;28;20559;-70
2022/07/07 06:57:56;;;;;;;7.07;1.38;;;;;;;19.27;61.65;102071.56;5072980;28;20110;-70
2022/07/07 07:00:21;;;;;;;7.40;1.67;;;;;;;19.34;61.27;102075.78;5060470;28;20017;-68
2022/07/07 07:02:48;;;;;;;6.05;1.40;;;;;;;19.28;61.41;102068.47;5063735;28;20057;-70
2022/07/07 07:05:14;;;;;;;5.50;2.20;;;;;;;19.39;61.89;102072.13;5082962;28;20025;-70
2022/07/07 07:07:40;;;;;;;5.82;1.50;;;;;;;19.34;61.25;102072.97;5063336;28;20035;-70
2022/07/07 07:10:05;;;;;;;6.03;1.38;;;;;;;19.51;61.71;102063.38;5072267;28;20055;-70
2022/07/07 07:12:31;;;;;;;7.43;1.23;;;;;;;19.50;61.34;102058.88;5065712;28;21759;-68
2022/07/07 07:14:56;;;;;;;6.97;1.77;;;;;;;19.74;60.92;102068.44;5068006;28;20024;-70
2022/07/07 07:17:21;;;;;;;8.23;1.40;;;;;;;19.74;60.98;102071.25;5074383;28;20020;-72
2022/07/07 07:19:47;;;;;;;9.70;1.33;;;;;;;19.81;60.92;102066.16;5070138;28;20052;-77
2022/07/07 07:22:12;;;;;;;4.70;1.23;;;;;;;19.85;60.31;102074.91;5072810;28;20031;-71
2022/07/07 07:24:37;;;;;;;7.70;1.50;;;;;;;19.97;59.48;102075.41;5070985;28;20106;-74
2022/07/07 07:27:03;;;;;;;6.55;1.17;;;;;;;19.83;58.75;102080.81;5071490;28;20021;-72
2022/07/07 07:29:28;;;;;;;7.93;1.60;;;;;;;19.81;59.57;102088.72;5066169;28;20013;-74
2022/07/07 07:31:53;;;;;;;5.85;1.30;;;;;;;19.70;59.08;102089.84;5076166;28;20061;-73
2022/07/07 07:34:18;;;;;;;9.05;1.85;;;;;;;19.72;59.25;102090.41;5070948;28;20382;-72
2022/07/07 07:36:44;;;;;;;7.43;1.92;;;;;;;19.71;58.99;102090.69;5071884;28;20037;-65
2022/07/07 07:39:09;;;;;;;4.93;1.40;;;;;;;19.72;58.99;102101.66;5068248;28;20036;-71
2022/07/07 07:41:34;;;;;;;6.88;1.48;;;;;;;19.79;59.11;102102.22;5076540;28;20031;-74
2022/07/07 07:44:00;;;;;;;6.32;1.40;;;;;;;19.76;59.14;102107.59;5075111;28;20082;-74
2022/07/07 07:46:25;;;;;;;5.68;1.33;;;;;;;19.76;59.03;102107.59;5066763;28;20526;-70
2022/07/07 07:48:50;;;;;;;6.70;1.48;;;;;;;19.68;59.10;102108.16;5062007;28;20039;-69
2022/07/07 07:51:16;;;;;;;5.78;1.60;;;;;;;19.52;58.84;102119.41;5066288;28;20029;-69
2022/07/07 07:53:41;;;;;;;9.35;1.75;;;;;;;19.53;60.12;102121.13;5069769;28;20058;-69
2022/07/07 07:56:06;;;;;;;7.00;1.30;;;;;;;19.52;60.25;102108.13;5064854;28;20403;-70
2022/07/07 07:58:32;;;;;;;8.45;1.73;;;;;;;19.27;60.85;102123.09;5068557;28;20039;-71
2022/07/07 08:00:58;;;;;;;7.60;1.67;;;;;;;19.27;61.31;102134.34;5070263;28;20024;-70
2022/07/07 08:03:23;;;;;;;4.28;1.20;;;;;;;19.12;62.30;102137.97;5066880;28;20036;-71
2022/07/07 08:05:48;;;;;;;4.35;1.15;;;;;;;19.07;62.09;102132.34;5070411;28;20250;-64
2022/07/07 08:08:13;;;;;;;2.17;0.85;;;;;;;19.10;62.19;102126.19;5066717;28;20043;-67
2022/07/07 08:10:39;;;;;;;6.90;1.00;;;;;;;19.07;62.42;102123.91;5070626;28;20033;-66
2022/07/07 08:13:04;;;;;;;3.33;1.08;;;;;;;19.11;62.44;102129.84;5070728;28;20032;-67
2022/07/07 08:15:30;;;;;;;2.83;0.95;;;;;;;19.20;62.53;102125.31;5073797;28;20031;-67
2022/07/07 08:17:55;;;;;;;3.75;1.00;;;;;;;19.34;62.12;102134.91;5071083;28;20111;-67
2022/07/07 08:20:20;;;;;;;5.00;1.00;;;;;;;19.43;62.36;102142.78;5071511;28;20132;-67
2022/07/07 08:22:46;;;;;;;6.78;1.33;;;;;;;19.54;62.19;102138.84;5072615;28;20036;-67
2022/07/07 08:25:11;;;;;;;5.75;1.30;;;;;;;19.61;61.36;102145.06;5070077;28;20032;-67
2022/07/07 08:27:37;;;;;;;4.50;1.40;;;;;;;19.58;61.72;102137.16;5071455;28;20059;-67
2022/07/07 08:30:05;;;;;;;3.95;1.10;;;;;;;19.55;62.04;102149.00;5070922;28;20541;-66
2022/07/07 08:32:30;;;;;;;5.30;1.50;;;;;;;19.57;61.55;102143.91;5072559;28;20118;-67
2022/07/07 08:34:55;;;;;;;5.07;1.30;;;;;;;19.49;61.24;102153.78;5072271;28;20115;-66
2022/07/07 08:37:21;;;;;;;6.80;1.45;;;;;;;19.43;60.99;102154.06;5071630;28;20060;-66
2022/07/07 08:39:46;;;;;;;6.95;1.20;;;;;;;19.41;61.12;102153.47;5077712;28;20036;-66
2022/07/07 08:42:12;;;;;;;4.63;1.25;;;;;;;19.37;61.70;102154.06;5075171;28;20066;-66
2022/07/07 08:44:37;;;;;;;3.38;0.95;;;;;;;19.32;61.81;102167.28;5069991;28;20103;-66
2022/07/07 08:47:03;;;;;;;4.43;1.20;;;;;;;19.26;62.66;102155.19;5087533;28;20439;-66
2022/07/07 08:49:30;;;;;;;4.95;1.30;;;;;;;19.34;62.49;102157.44;5072212;28;20032;-66
2022/07/07 08:51:56;;;;;;;4.50;1.20;;;;;;;19.57;62.35;102167.31;5070299;28;20033;-66
2022/07/07 08:54:24;;;;;;;3.97;1.27;;;;;;;19.74;63.85;102158.59;5070169;28;20031;-67
2022/07/07 08:56:49;;;;;;;5.63;1.75;;;;;;;19.70;63.04;102160.28;5069570;28;20036;-67
2022/07/07 08:59:14;;;;;;;5.05;1.40;;;;;;;19.84;61.47;102167.00;5068195;28;20024;-67
2022/07/07 09:01:41;;;;;;;4.63;1.08;;;;;;;19.83;62.00;102170.13;5073889;28;20028;-67
2022/07/07 09:04:06;;;;;;;4.85;1.30;;;;;;;19.74;61.29;102172.66;5070716;28;20071;-67
2022/07/07 09:06:32;;;;;;;10.55;1.30;;;;;;;19.54;60.42;102192.38;5066535;28;20523;-67
2022/07/07 09:08:58;;;;;;;7.05;1.38;;;;;;;19.48;60.95;102185.03;5068119;28;20111;-66
2022/07/07 09:11:28;;;;;;;5.28;1.40;;;;;;;19.30;61.95;102180.81;5070020;28;20032;-67
2022/07/07 09:14:08;;;;;;;5.22;1.05;;;;;;;19.32;62.63;102186.97;5065877;28;20032;-66
2022/07/07 09:16:36;;;;;;;6.45;1.40;;;;;;;19.30;63.18;102184.47;5079000;28;20033;-66
2022/07/07 09:19:01;;;;;;;7.57;1.55;;;;;;;19.30;63.90;102184.47;5067965;28;20016;-66
2022/07/07 09:21:31;;;;;;;7.47;1.45;;;;;;;19.35;63.31;102192.91;5072014;28;20032;-66
2022/07/07 09:23:59;;;;;;;6.18;1.50;;;;;;;19.40;62.00;102189.25;5069741;28;20027;-66
2022/07/07 09:26:44;;;;;;;2.85;1.00;;;;;;;19.49;61.93;102192.34;5074507;28;20077;-66
2022/07/07 09:29:15;;;;;;;6.10;1.10;;;;;;;19.50;63.22;102199.69;5071237;28;20502;-66
2022/07/07 09:31:52;;;;;;;2.75;0.82;;;;;;;19.60;60.59;102196.84;5082214;28;20361;-66
2022/07/07 09:34:18;;;;;;;5.60;1.20;;;;;;;19.51;60.62;102207.84;5079037;28;20077;-66
2022/07/07 09:39:46;;;;;;;4.10;1.27;;;;;;;19.59;60.73;102206.44;5070852;28;20094;-66
2022/07/07 09:42:18;;;;;;;4.50;1.30;;;;;;;19.57;61.14;102217.13;5081090;28;20027;-66
2022/07/07 09:44:46;;;;;;;4.50;1.15;;;;;;;19.61;60.90;102218.28;5069311;28;20036;-66
2022/07/07 09:47:11;;;;;;;4.78;1.25;;;;;;;19.62;60.63;102222.81;5070023;28;20032;-66
2022/07/07 09:49:43;;;;;;;2.55;0.95;;;;;;;19.60;60.22;102222.19;5075063;28;20020;-66
2022/07/07 09:52:18;;;;;;;3.80;0.88;;;;;;;19.69;60.20;102223.38;5068050;28;20367;-66
2022/07/07 09:54:49;;;;;;;8.30;1.20;;;;;;;19.64;59.71;102229.00;5065194;28;20036;-65
2022/07/07 09:57:16;;;;;;;5.18;1.05;;;;;;;19.69;60.49;102245.91;5066421;28;20107;-63
2022/07/07 09:59:42;;;;;;;4.47;0.90;;;;;;;19.65;60.95;102258.00;5081937;28;20032;-69
2022/07/07 10:02:31;;;;;;;3.92;1.25;;;;;;;19.53;61.50;102264.75;5068671;28;20529;-71
2022/07/07 10:05:00;;;;;;;3.83;1.00;;;;;;;19.29;62.43;102258.75;5063493;28;20062;-69
2022/07/07 10:07:32;;;;;;;3.65;1.00;;;;;;;19.23;63.39;102262.69;5070910;28;20086;-73
2022/07/07 10:10:02;;;;;;;5.27;1.00;;;;;;;19.08;64.41;102259.84;5078860;28;20021;-72
2022/07/07 10:12:28;;;;;;;4.50;0.82;;;;;;;19.12;64.64;102263.78;5079875;28;20326;-72
2022/07/07 10:14:58;;;;;;;4.75;1.20;;;;;;;19.19;65.54;102267.19;5075739;28;20293;-72
2022/07/07 10:17:24;;;;;;;5.55;1.42;;;;;;;19.30;65.46;102262.44;5069162;28;20024;-75
2022/07/07 10:19:50;;;;;;;6.50;1.20;;;;;;;19.30;64.91;102268.06;5071723;28;20031;-66
2022/07/07 10:22:16;;;;;;;3.13;0.85;;;;;;;19.26;64.52;102279.03;5070739;28;20111;-70
2022/07/07 10:24:41;;;;;;;4.13;1.20;;;;;;;19.21;64.31;102275.34;5071379;28;20032;-70
2022/07/07 10:27:11;;;;;;;4.88;1.30;;;;;;;19.21;64.29;102278.16;5066152;28;20017;-67
2022/07/07 10:29:41;;;;;;;8.07;1.30;;;;;;;19.16;64.61;102284.63;5068544;28;20028;-72
2022/07/07 10:32:09;;;;;;;4.00;1.10;;;;;;;19.03;64.53;102286.00;5068582;28;20067;-73
2022/07/07 10:34:36;;;;;;;4.03;1.10;;;;;;;19.08;64.54;102290.78;5072696;28;20380;-77
2022/07/07 10:37:06;;;;;;;4.97;1.33;;;;;;;19.18;64.78;102296.47;5065664;28;20569;-75
2022/07/07 10:39:36;;;;;;;6.55;0.95;;;;;;;19.10;65.04;102297.00;5069487;28;20032;-78
2022/07/07 10:42:10;;;;;;;5.43;1.08;;;;;;;19.16;64.55;102297.84;5072843;28;20220;-78
2022/07/07 10:44:37;;;;;;;5.93;1.02;;;;;;;19.22;64.03;102303.25;5077166;28;20786;-77
2022/07/07 10:47:24;;;;;;;4.47;0.93;;;;;;;19.20;63.83;102294.22;5071844;28;20030;-77
2022/07/07 10:49:52;;;;;;;4.15;1.10;;;;;;;19.24;62.67;102292.53;5068396;28;20434;-77
2022/07/07 10:52:19;;;;;;;6.53;1.20;;;;;;;19.27;62.75;102303.25;5073894;28;20028;-78
2022/07/07 10:55:04;;;;;;;2.53;1.05;;;;;;;19.25;63.36;102319.56;5069842;28;20025;-78
2022/07/07 10:57:41;;;;;;;5.63;1.40;;;;;;;19.09;64.92;102324.28;5071445;28;20506;-75
2022/07/07 11:00:12;;;;;;;3.50;0.90;;;;;;;19.00;64.95;102319.47;5073782;28;20070;-75
2022/07/07 11:02:41;;;;;;;5.03;1.40;;;;;;;18.79;64.89;102330.63;5069171;28;20028;-77
2022/07/07 11:05:15;;;;;;;3.78;1.10;;;;;;;18.81;65.04;102334.00;5073368;28;20111;-75
2022/07/07 11:07:42;;;;;;;5.38;1.10;;;;;;;18.85;65.13;102323.88;5073312;28;20032;-79
2022/07/07 11:10:10;;;;;;;3.50;1.10;;;;;;;18.92;65.16;102334.91;5079720;28;20035;-75
2022/07/07 11:12:43;;;;;;;6.63;1.50;;;;;;;19.01;65.19;102343.66;5070605;28;20040;-77
2022/07/07 11:15:14;;;;;;;6.07;1.50;;;;;;;19.04;65.04;102338.34;5076836;28;20056;-74
2022/07/07 11:17:43;;;;;;;6.07;1.40;;;;;;;19.09;65.46;102340.31;5071167;28;20028;-75
2022/07/07 11:20:13;;;;;;;3.30;1.38;;;;;;;19.21;65.47;102340.94;5069599;28;20021;-74
2022/07/07 11:22:42;;;;;;;6.75;1.60;;;;;;;19.28;65.02;102337.88;5071290;28;20099;-75
2022/07/07 11:25:08;;;;;;;6.35;1.80;;;;;;;19.32;64.34;102351.13;5069587;28;20024;-72